Nearby METAR Reports

 

KDLS - The Dalles, Oregon, USA
Distance from station: NNE 2mi, 3km
Updated: Sat, 31-Jul-2021 11:53pm PDT
Clear
Clear
 Wind from NW
Wind: NW 14 mph , 22 km/h
Temperature: 81°F , 27°C
Heat Index: 82°F , 28°C
Dew Point: 61°F , 16°C
Humidity: 51%
Barometer: 29.94 inHg , 1013.9 hPa
Clouds: Clear
Visibility: 10 miles , 16 km
2021/08/01 06:53 KDLS 010653Z AUTO 32012KT 10SM CLR 27/16 A2994 RMK AO2 SLP136 T02670161
KTTD - Troutdale, Oregon, USA
Distance from station: W 60mi, 96km
Updated: Sat, 31-Jul-2021 11:53pm PDT
Clear
Clear
 Wind from W
Wind: W 3 mph , 6 km/h
Temperature: 72°F , 22°C
Dew Point: 59°F , 15°C
Humidity: 65%
Barometer: 30.02 inHg , 1016.6 hPa
Clouds: Clear
Visibility: 10 miles , 16 km
2021/08/01 06:53 KTTD 010653Z AUTO 26003KT 10SM CLR 22/15 A3002 RMK AO2 SLP165 T02220150
 
KPDX - Portland, Oregon, USA
Distance from station: W 69mi, 111km
Updated: Sat, 31-Jul-2021 11:53pm PDT
Mostly cloudy
Mostly cloudy
 Wind from NNW
Wind: NNW 6 mph , 9 km/h
Temperature: 72°F , 22°C
Dew Point: 57°F , 14°C
Humidity: 61%
Barometer: 30.03 inHg , 1016.9 hPa
Clouds: Mostly cloudy
Visibility: 10 miles , 16 km
Cloud details: Mostly cloudy 25000 ft
2021/08/01 06:53 KPDX 010653Z 33005KT 10SM BKN250 22/14 A3003 RMK AO2 SLP166 T02170144
KVUO - Vancouver, Washington, USA
Distance from station: W 71mi, 114km
Updated: Sat, 31-Jul-2021 11:53pm PDT
Clear
Clear
 Wind from varies
Wind: varies 3 mph , 6 km/h
Temperature: 70°F , 21°C
Dew Point: 55°F , 13°C
Humidity: 60%
Barometer: 30.02 inHg , 1016.6 hPa
Clouds: Clear
Visibility: 10 miles , 16 km
2021/08/01 06:53 KVUO 010653Z AUTO VRB03KT 10SM CLR 21/13 A3002 RMK AO2 SLP166 T02110133
 
KYKM - Yakima, Washington, USA
Distance from station: NNE 74mi, 120km
Updated: Sat, 31-Jul-2021 11:53pm PDT
Overcast
Overcast
 Wind from W
Wind: W 13 mph , 20 km/h, Gust: 21 mph , 33 km/h
Temperature: 86°F , 30°C
Dew Point: 54°F , 12°C
Humidity: 33%
Barometer: 29.96 inHg , 1014.6 hPa
Clouds: Overcast
Visibility: 8 miles , 13 km
Cloud details: Few Clouds 7000 ft
Mostly cloudy 9000 ft
Overcast 11000 ft
2021/08/01 06:53 KYKM 010653Z AUTO 26011G18KT 8SM FEW070 BKN090 OVC110 30/12 A2996 RMK AO2 RAB21E31 SLP135 P0000 T03000117
KUAO - Aurora, Oregon, USA
Distance from station: WSW 80mi, 129km
Updated: Sat, 31-Jul-2021 11:53pm PDT
Clear
Clear
 Wind from NE
Wind: NE 3 mph , 6 km/h
Temperature: 73°F , 23°C
Dew Point: 59°F , 15°C
Humidity: 61%
Barometer: 30.03 inHg , 1016.9 hPa
Clouds: Clear
Visibility: 10 miles , 16 km
2021/08/01 06:53 KUAO 010653Z AUTO 05003KT 10SM CLR 23/15 A3003 RMK AO2 SLP166 T02330150
 
KSPB - Scappoose, Oregon, USA
Distance from station: W 82mi, 132km
Updated: Sat, 31-Jul-2021 11:53pm PDT
Clear
Clear
 Wind from N
Wind: N 7 mph , 11 km/h
Temperature: 70°F , 21°C
Dew Point: 59°F , 15°C
Humidity: 69%
Barometer: 30.02 inHg , 1016.6 hPa
Clouds: Clear
Visibility: 10 miles , 16 km
2021/08/01 06:53 KSPB 010653Z AUTO 01006KT 10SM CLR 21/15 A3002 RMK AO2 SLP166 T02060150
KHIO - Hillsboro/Portld, Oregon, USA
Distance from station: W 85mi, 137km
Updated: Sat, 31-Jul-2021 11:53pm PDT
Clear
Clear
 Wind from WNW
Wind: WNW 5 mph , 7 km/h
Temperature: 68°F , 20°C
Dew Point: 57°F , 14°C
Humidity: 69%
Barometer: 30.02 inHg , 1016.6 hPa
Clouds: Clear
Visibility: 10 miles , 16 km
2021/08/01 06:53 KHIO 010653Z AUTO 30004KT 10SM CLR 20/14 A3002 RMK AO2 SLP163 T02000144
 
KKLS - Kelso Longveiw, Washington, USA
Distance from station: WNW 90mi, 145km
Updated: Sat, 31-Jul-2021 11:56pm PDT
Overcast
Overcast
 Wind from NW
Wind: NW 3 mph , 6 km/h
Temperature: 63°F , 17°C
Dew Point: 59°F , 15°C
Humidity: 88%
Barometer: 30.06 inHg , 1017.9 hPa
Clouds: Overcast
Visibility: 10 miles , 16 km
Cloud details: Overcast 1300 ft
2021/08/01 06:56 KKLS 010656Z AUTO 32003KT 10SM OVC013 17/15 A3006 RMK AO2 SLP184 T01720150
KRDM - Redmond, Oregon, USA
Distance from station: S 93mi, 149km
Updated: Sat, 31-Jul-2021 11:56pm PDT
Clear
Clear
 Wind from W
Wind: W 3 mph , 6 km/h
Temperature: 66°F , 19°C
Dew Point: 59°F , 15°C
Humidity: 78%
Barometer: 30.14 inHg , 1020.7 hPa
Clouds: Clear
Visibility: 10 miles , 16 km
2021/08/01 06:56 KRDM 010656Z AUTO 26003KT 10SM CLR 19/15 A3014 RMK AO2 SLP181 T01940150
 
KHRI - Hermiston, Oregon, USA
Distance from station: E 94mi, 151km
Updated: Sat, 31-Jul-2021 11:53pm PDT
Overcast
Overcast
 Wind from SW
Wind: SW 7 mph , 11 km/h
Temperature: 86°F , 30°C
Heat Index: 85°F , 29°C
Dew Point: 59°F , 15°C
Humidity: 40%
Barometer: 29.95 inHg , 1014.2 hPa
Clouds: Overcast
Visibility: 10 miles , 16 km
Cloud details: Few Clouds 7000 ft
Partly cloudy 9000 ft
Overcast 12000 ft
2021/08/01 06:53 KHRI 010653Z AUTO 22006KT 10SM FEW070 SCT090 OVC120 30/15 A2995 RMK AO2 SLP132 T03000150
KMMV - Mcminnville, Oregon, USA
Distance from station: WSW 98mi, 158km
Updated: Sat, 31-Jul-2021 11:53pm PDT
Clear
Clear
 Wind from W
Wind: W 8 mph , 13 km/h
Temperature: 64°F , 18°C
Dew Point: 57°F , 14°C
Humidity: 78%
Barometer: 30.02 inHg , 1016.6 hPa
Clouds: Clear
Visibility: 10 miles , 16 km
2021/08/01 06:53 KMMV 010653Z AUTO 26007KT 10SM CLR 18/14 A3002 RMK AO2 SLP165 T01780139
 
KSLE - Salem, Oregon, USA
Distance from station: WSW 100mi, 161km
Updated: Sat, 31-Jul-2021 11:56pm PDT
Clear
Clear
 Wind from calm
Wind: Calm
Temperature: 72°F , 22°C
Dew Point: 55°F , 13°C
Humidity: 57%
Barometer: 30.02 inHg , 1016.6 hPa
Clouds: Clear
Visibility: 10 miles , 16 km
2021/08/01 06:56 KSLE 010656Z AUTO 00000KT 10SM CLR 22/13 A3002 RMK AO2 SLP164 T02170133
KBDN - Bend, Oregon, USA
Distance from station: S 103mi, 166km
Updated: Sun, 01-Aug-2021 12:15am PDT
Clear
Clear
 Wind from calm
Wind: Calm
Temperature: 64°F , 18°C
Dew Point: 61°F , 16°C
Humidity: 88%
Barometer: 30.17 inHg , 1021.7 hPa
Clouds: Clear
Visibility: 10 miles , 16 km
2021/08/01 07:15 KBDN 010715Z AUTO 00000KT 10SM CLR 18/16 A3017 RMK AO2
 
KELN - Ellensburg, Washington, USA
Distance from station: NNE 104mi, 168km
Updated: Sat, 31-Jul-2021 11:53pm PDT
Partly cloudy
Partly cloudy
 Wind from W
Wind: W 3 mph , 6 km/h
Temperature: 86°F , 30°C
Dew Point: 50°F , 10°C
Humidity: 29%
Barometer: 30.00 inHg , 1015.9 hPa
Clouds: Partly cloudy
Visibility: 10 miles , 16 km
Cloud details: Few Clouds 10000 ft
Partly cloudy 12000 ft
2021/08/01 06:53 KELN 010653Z AUTO 27003KT 10SM FEW100 SCT120 30/10 A3000 RMK AO2 WSHFT 0547 SLP142 T03000100
KPSC - Pasco, Washington, USA
Distance from station: ENE 110mi, 177km
Updated: Sat, 31-Jul-2021 11:53pm PDT
Haze, Clear
Haze, Clear
 Wind from NE
Wind: NE 3 mph , 6 km/h
Temperature: 86°F , 30°C
Heat Index: 86°F , 30°C
Dew Point: 61°F , 16°C
Humidity: 43%
Barometer: 29.90 inHg , 1012.5 hPa
Summary: Haze
Clouds: Clear
Visibility: 10 miles , 16 km
2021/08/01 06:53 KPSC 010653Z AUTO 04003KT 10SM HZ CLR 30/16 A2990 RMK AO2 RAE01 SLP119 P0000 T03000161
 
KPDT - Pendleton, Oregon, USA
Distance from station: E 114mi, 183km
Updated: Sat, 31-Jul-2021 11:53pm PDT
Overcast
Overcast
 Wind from SSE
Wind: SSE 8 mph , 13 km/h
Temperature: 81°F , 27°C
Heat Index: 81°F , 27°C
Dew Point: 55°F , 13°C
Humidity: 42%
Barometer: 30.01 inHg , 1016.3 hPa
Clouds: Overcast
Visibility: 10 miles , 16 km
Cloud details: Overcast 11000 ft
2021/08/01 06:53 KPDT 010653Z AUTO 16007KT 10SM OVC110 27/13 A3001 RMK AO2 SLP140 T02720133
KCLS - Chehalis Central, Washington, USA
Distance from station: NW 115mi, 184km
Updated: Sun, 01-Aug-2021 12:15am PDT
Overcast
Overcast
 Wind from SW
Wind: SW 3 mph , 6 km/h
Temperature: 64°F , 18°C
Dew Point: 59°F , 15°C
Humidity: 83%
Barometer: 30.04 inHg , 1017.3 hPa
Clouds: Overcast
Visibility: 10 miles , 16 km
Cloud details: Overcast 5500 ft
2021/08/01 07:15 KCLS 010715Z AUTO 23003KT 10SM OVC055 18/15 A3004 RMK AO2
 
KPLU - Puyallup/Thun, Washington, USA
Distance from station: NNW 117mi, 188km
Updated: Sat, 31-Jul-2021 11:55pm PDT
Overcast
Overcast
 Wind from calm
Wind: Calm
Temperature: 68°F , 20°C
Dew Point: 61°F , 16°C
Humidity: 78%
Barometer: 30.05 inHg , 1017.6 hPa
Clouds: Overcast
Visibility: 10 miles , 16 km
Cloud details: Partly cloudy 3700 ft
Mostly cloudy 6000 ft
Overcast 7000 ft
2021/08/01 06:55 KPLU 010655Z AUTO 00000KT 10SM SCT037 BKN060 OVC070 20/16 A3005 RMK AO2
KCVO - Corvallis Muni A, Oregon, USA
Distance from station: WNW 167mi, 269km
Updated: Sat, 31-Jul-2021 11:56pm PDT
Clear
Clear
 Wind from NW
Wind: NW 13 mph , 20 km/h, Gust: 22 mph , 35 km/h
Temperature: 64°F , 18°C
Dew Point: 55°F , 13°C
Humidity: 73%
Barometer: 30.03 inHg , 1016.9 hPa
Clouds: Clear
Visibility: 10 miles , 16 km
2021/08/01 06:56 KCVO 010656Z AUTO 31011G19KT 10SM CLR 18/13 A3003 RMK AO2 SLP169 T01780133
 
KEUG - Eugene, Oregon, USA
Distance from station: W 193mi, 310km
Updated: Sat, 31-Jul-2021 11:54pm PDT
Clear
Clear
 Wind from calm
Wind: Calm
Temperature: 70°F , 21°C
Dew Point: 59°F , 15°C
Humidity: 69%
Barometer: 30.02 inHg , 1016.6 hPa
Clouds: Clear
Visibility: 10 miles , 16 km
2021/08/01 06:54 KEUG 010654Z AUTO 00000KT 10SM CLR 21/15 A3002 RMK AO2 SLP165 T02060150
KRBG - Roseburg, Oregon, USA
Distance from station: WSW 196mi, 315km
Updated: Sat, 31-Jul-2021 11:53pm PDT
Clear
Clear
 Wind from calm
Wind: Calm
Temperature: 75°F , 24°C
Dew Point: 54°F , 12°C
Humidity: 47%
Barometer: 30.02 inHg , 1016.6 hPa
Clouds: Clear
Visibility: 10 miles , 16 km
2021/08/01 06:53 KRBG 010653Z AUTO 00000KT 10SM CLR 24/12 A3002 RMK AO2 SLP161 T02390117
 
KLKV - Lakeview, Oregon, USA
Distance from station: SSE 239mi, 385km
Updated: Sat, 31-Jul-2021 11:53pm PDT
Clear
Clear
 Wind from NNW
Wind: NNW 8 mph , 13 km/h
Temperature: 57°F , 14°C
Dew Point: 54°F , 12°C
Humidity: 88%
Barometer: 30.26 inHg , 1024.7 hPa
Clouds: Clear
Visibility: 10 miles , 16 km
2021/08/01 06:53 KLKV 010653Z AUTO 34007KT 10SM CLR 14/12 A3026 RMK AO2 SLP211 T01440122
KMFR - Medford, Oregon, USA
Distance from station: WSW 241mi, 388km
Updated: Sat, 31-Jul-2021 11:53pm PDT
Clear
Clear
 Wind from WSW
Wind: WSW 3 mph , 6 km/h
Temperature: 84°F , 29°C
Dew Point: 55°F , 13°C
Humidity: 37%
Barometer: 30.00 inHg , 1015.9 hPa
Clouds: Clear
Visibility: 10 miles , 16 km
2021/08/01 06:53 KMFR 010653Z AUTO 25003KT 10SM CLR 29/13 A3000 RMK AO2 SLP142 T02890133
 
KBNO - Burns, Oregon, USA
Distance from station: ESE 249mi, 280km
Updated: Sat, 31-Jul-2021 11:53pm PDT
Overcast
Overcast
 Wind from WSW
Wind: WSW 9 mph , 15 km/h
Temperature: 66°F , 19°C
Dew Point: 59°F , 15°C
Humidity: 78%
Barometer: 30.21 inHg , 1023 hPa
Clouds: Overcast
Visibility: 10 miles , 16 km
Cloud details: Overcast 8500 ft
2021/08/01 06:53 KBNO 010653Z AUTO 25008KT 10SM OVC085 19/15 A3021 RMK AO2 SLP185 T01940150
KLMT - Klamath Falls, Oregon, USA
Distance from station: SSW 266mi, 428km
Updated: Sat, 31-Jul-2021 11:53pm PDT
Clear
Clear
 Wind from calm
Wind: Calm
Temperature: 59°F , 15°C
Dew Point: 55°F , 13°C
Humidity: 88%
Barometer: 30.20 inHg , 1022.7 hPa
Clouds: Clear
Visibility: 10 miles , 16 km
2021/08/01 06:53 KLMT 010653Z AUTO 00000KT 10SM CLR 15/13 A3020 RMK AO2 SLP185 T01500128